
Distance (Route):
Temperature : 21.1°C
Humidity : 46.7%
Pressure : 0hPa| Receiver | Date | Latitude | Longitude | Direction | Speed | Altitude | Climb | Temperature | Humidity | Pressure | Voltage | Killtimer | Uptime | BKT | XDATA |
|---|---|---|---|---|---|---|---|---|---|---|---|---|---|---|---|
| LZ4TU-5 | 2026-09-01 06:55:28 | 44.18027 | 23.36860 | 242° | 22km/h | 520m | -14.1m/s | 21.1°C | 46.7% | 0hPa | 0V | 00:00:00 | 00:00:00 | 00:00:00 | |
| LZ4TU-5 | 2026-09-01 06:55:24 | 44.18034 | 23.36885 | 257° | 13km/h | 579m | -13.9m/s | 21.1°C | 45.1% | 0hPa | 0V | 00:00:00 | 00:00:00 | 00:00:00 | |
| LZ4TU-5 | 2026-09-01 06:55:19 | 44.18034 | 23.36904 | 264° | 5km/h | 644m | -13.7m/s | 22.0°C | 43.6% | 0hPa | 0V | 00:00:00 | 00:00:00 | 00:00:00 | |
| LZ4TU-5 | 2026-09-01 06:55:14 | 44.18032 | 23.36916 | 259° | 7km/h | 718m | -13.9m/s | 21.8°C | 42.2% | 0hPa | 0V | 00:00:00 | 00:00:00 | 00:00:00 | |
| LZ4TU-5 | 2026-09-01 06:55:10 | 44.18034 | 23.36926 | 256° | 7km/h | 775m | -13.9m/s | 22.4°C | 41.0% | 0hPa | 0V | 00:00:00 | 00:00:00 | 00:00:00 | |
| LZ4TU-5 | 2026-09-01 06:55:05 | 44.18035 | 23.36933 | 246° | 2km/h | 840m | -13.8m/s | 22.3°C | 40.7% | 0hPa | 0V | 00:00:00 | 00:00:00 | 00:00:00 | |
| LZ4TU-5 | 2026-09-01 06:55:00 | 44.18038 | 23.36932 | 137° | 4km/h | 904m | -14.1m/s | 21.9°C | 40.7% | 0hPa | 0V | 00:00:00 | 00:00:00 | 00:00:00 | |
| LZ4TU-5 | 2026-09-01 06:54:52 | 44.18039 | 23.36925 | 70° | 4km/h | 1020m | -14.1m/s | 21.8°C | 39.8% | 0hPa | 0V | 00:00:00 | 00:00:00 | 00:00:00 | |
| LZ4TU-5 | 2026-09-01 06:54:48 | 44.18036 | 23.36921 | 46° | 4km/h | 1079m | -14.0m/s | 21.8°C | 38.6% | 0hPa | 0V | 00:00:00 | 00:00:00 | 00:00:00 | |
| LZ4TU-5 | 2026-09-01 06:54:44 | 44.18032 | 23.36918 | 0° | 0km/h | 1138m | -14.0m/s | 21.6°C | 38.7% | 0hPa | 0V | 00:00:00 | 00:00:00 | 00:00:00 | |
| LZ4TU-5 | 2026-09-01 06:54:39 | 44.18030 | 23.36920 | 302° | 2km/h | 1212m | -14.3m/s | 21.1°C | 39.4% | 0hPa | 0V | 00:00:00 | 00:00:00 | 00:00:00 | |
| LZ4TU-5 | 2026-09-01 06:54:34 | 44.18031 | 23.36922 | 270° | 4km/h | 1273m | -14.3m/s | 20.6°C | 40.0% | 0hPa | 0V | 00:00:00 | 00:00:00 | 00:00:00 | |
| LZ4TU-5 | 2026-09-01 06:54:29 | 44.18032 | 23.36932 | 258° | 5km/h | 1348m | -14.4m/s | 19.9°C | 40.9% | 0hPa | 0V | 00:00:00 | 00:00:00 | 00:00:00 | |
| LZ4TU-5 | 2026-09-01 06:54:24 | 44.18034 | 23.36941 | 246° | 5km/h | 1423m | -14.4m/s | 19.3°C | 41.8% | 0hPa | 0V | 00:00:00 | 00:00:00 | 00:00:00 | |
| LZ4TU-5 | 2026-09-01 06:54:19 | 44.18036 | 23.36949 | 0° | 0km/h | 1498m | -14.5m/s | 18.7°C | 43.2% | 0hPa | 0V | 00:00:00 | 00:00:00 | 00:00:00 | |
| LZ4TU-5 | 2026-09-01 06:54:15 | 44.18037 | 23.36951 | 0° | 0km/h | 1558m | -14.5m/s | 18.2°C | 44.8% | 0hPa | 0V | 00:00:00 | 00:00:00 | 00:00:00 | |
| LZ4TU-5 | 2026-09-01 06:54:10 | 44.18037 | 23.36953 | 244° | 4km/h | 1629m | -14.6m/s | 17.6°C | 47.5% | 0hPa | 0V | 00:00:00 | 00:00:00 | 00:00:00 | |
| LZ4TU-5 | 2026-09-01 06:54:06 | 44.18042 | 23.36957 | 231° | 5km/h | 1675m | -14.6m/s | 17.1°C | 49.5% | 0hPa | 0V | 00:00:00 | 00:00:00 | 00:00:00 | |
| LZ4TU-5 | 2026-09-01 06:54:02 | 44.18045 | 23.36963 | 229° | 5km/h | 1736m | -14.6m/s | 16.5°C | 51.2% | 0hPa | 0V | 00:00:00 | 00:00:00 | 00:00:00 | |
| LZ4TU-5 | 2026-09-01 06:53:57 | 44.18049 | 23.36969 | 231° | 5km/h | 1811m | -14.5m/s | 15.8°C | 52.8% | 0hPa | 0V | 00:00:00 | 00:00:00 | 00:00:00 | |
| LZ4TU-5 | 2026-09-01 06:53:52 | 44.18054 | 23.36977 | 231° | 5km/h | 1887m | -15.0m/s | 15.2°C | 54.4% | 0hPa | 0V | 00:00:00 | 00:00:00 | 00:00:00 | |
| LZ4TU-5 | 2026-09-01 06:53:47 | 44.18058 | 23.36982 | 0° | 0km/h | 1965m | -15.4m/s | 14.7°C | 58.6% | 0hPa | 0V | 00:00:00 | 00:00:00 | 00:00:00 | |
| LZ4TU-5 | 2026-09-01 06:53:43 | 44.18059 | 23.36978 | 86° | 4km/h | 2028m | -15.3m/s | 14.6°C | 61.0% | 0hPa | 0V | 00:00:00 | 00:00:00 | 00:00:00 | |
| LZ4TU-5 | 2026-09-01 06:53:38 | 44.18058 | 23.36969 | 80° | 5km/h | 2106m | -15.2m/s | 14.1°C | 62.6% | 0hPa | 0V | 00:00:00 | 00:00:00 | 00:00:00 | |
| LZ4TU-5 | 2026-09-01 06:53:33 | 44.18059 | 23.36957 | 96° | 9km/h | 2173m | -15.8m/s | 13.5°C | 65.6% | 0hPa | 0V | 00:00:00 | 00:00:00 | 00:00:00 | |
| LZ4TU-5 | 2026-09-01 06:53:28 | 44.18060 | 23.36942 | 95° | 9km/h | 2252m | -15.7m/s | 13.2°C | 63.2% | 0hPa | 0V | 00:00:00 | 00:00:00 | 00:00:00 | |
| LZ4TU-5 | 2026-09-01 06:53:24 | 44.18060 | 23.36930 | 91° | 9km/h | 2316m | -15.9m/s | 12.8°C | 64.4% | 0hPa | 0V | 00:00:00 | 00:00:00 | 00:00:00 | |
| LZ4TU-5 | 2026-09-01 06:53:19 | 44.18060 | 23.36914 | 99° | 9km/h | 2399m | -15.9m/s | 12.2°C | 65.8% | 0hPa | 0V | 00:00:00 | 00:00:00 | 00:00:00 | |
| LZ4TU-5 | 2026-09-01 06:53:14 | 44.18062 | 23.36898 | 104° | 9km/h | 2481m | -15.7m/s | 11.5°C | 64.4% | 0hPa | 0V | 00:00:00 | 00:00:00 | 00:00:00 | |
| LZ4TU-5 | 2026-09-01 06:53:10 | 44.18064 | 23.36885 | 103° | 9km/h | 2545m | -15.5m/s | 11.0°C | 65.1% | 0hPa | 0V | 00:00:00 | 00:00:00 | 00:00:00 | |
| LZ4TU-5 | 2026-09-01 06:53:05 | 44.18066 | 23.36868 | 92° | 9km/h | 2608m | -15.7m/s | 10.3°C | 71.4% | 0hPa | 0V | 00:00:00 | 00:00:00 | 00:00:00 | |
| LZ4TU-5 | 2026-09-01 06:53:00 | 44.18065 | 23.36852 | 81° | 9km/h | 2690m | -15.9m/s | 9.7°C | 71.5% | 0hPa | 0V | 00:00:00 | 00:00:00 | 00:00:00 | |
| LZ4TU-5 | 2026-09-01 06:52:55 | 44.18062 | 23.36837 | 82° | 11km/h | 2772m | -16.0m/s | 9.5°C | 67.7% | 0hPa | 0V | 00:00:00 | 00:00:00 | 00:00:00 | |
| LZ4TU-5 | 2026-09-01 06:52:50 | 44.18063 | 23.36817 | 103° | 15km/h | 2854m | -15.8m/s | 9.1°C | 100.0% | 0hPa | 0V | 00:00:00 | 00:00:00 | 00:00:00 | |
| LZ4TU-5 | 2026-09-01 06:52:45 | 44.18069 | 23.36788 | 115° | 20km/h | 2937m | -16.4m/s | 8.8°C | 66.7% | 0hPa | 0V | 00:00:00 | 00:00:00 | 00:00:00 | |
| LZ4TU-5 | 2026-09-01 06:52:40 | 44.18080 | 23.36756 | 117° | 20km/h | 3021m | -15.9m/s | 8.0°C | 69.0% | 0hPa | 0V | 00:00:00 | 00:00:00 | 00:00:00 | |
| LZ4TU-5 | 2026-09-01 06:52:35 | 44.18095 | 23.36720 | 122° | 24km/h | 3088m | -16.5m/s | 7.4°C | 73.4% | 0hPa | 0V | 00:00:00 | 00:00:00 | 00:00:00 | |
| LZ4TU-5 | 2026-09-01 06:52:30 | 44.18112 | 23.36684 | 127° | 27km/h | 3172m | -15.9m/s | 6.7°C | 80.3% | 0hPa | 0V | 00:00:00 | 00:00:00 | 00:00:00 | |
| LZ4TU-5 | 2026-09-01 06:52:25 | 44.18132 | 23.36645 | 129° | 29km/h | 3255m | -16.3m/s | 6.0°C | 80.7% | 0hPa | 0V | 00:00:00 | 00:00:00 | 00:00:00 | |
| LZ4TU-5 | 2026-09-01 06:52:20 | 44.18156 | 23.36601 | 129° | 33km/h | 3341m | -16.7m/s | 5.7°C | 74.0% | 0hPa | 0V | 00:00:00 | 00:00:00 | 00:00:00 | |
| LZ4TU-5 | 2026-09-01 06:52:16 | 44.18176 | 23.36564 | 127° | 35km/h | 3409m | -16.3m/s | 5.3°C | 71.5% | 0hPa | 0V | 00:00:00 | 00:00:00 | 00:00:00 | |
| LZ4TU-5 | 2026-09-01 06:52:11 | 44.18201 | 23.36512 | 123° | 37km/h | 3494m | -16.7m/s | 5.0°C | 69.2% | 0hPa | 0V | 00:00:00 | 00:00:00 | 00:00:00 | |
| LZ4TU-5 | 2026-09-01 06:52:02 | 44.18251 | 23.36408 | 127° | 40km/h | 3634m | -16.7m/s | 4.0°C | 65.5% | 0hPa | 0V | 00:00:00 | 00:00:00 | 00:00:00 | |
| LZ4TU-5 | 2026-09-01 06:51:58 | 44.18276 | 23.36362 | 128° | 42km/h | 3701m | -16.2m/s | 3.4°C | 65.4% | 0hPa | 0V | 00:00:00 | 00:00:00 | 00:00:00 | |
| LZ4TU-5 | 2026-09-01 06:51:54 | 44.18301 | 23.36316 | 127° | 42km/h | 3769m | -16.6m/s | 2.9°C | 66.3% | 0hPa | 0V | 00:00:00 | 00:00:00 | 00:00:00 | |
| LZ4TU-5 | 2026-09-01 06:51:49 | 44.18331 | 23.36256 | 123° | 42km/h | 3855m | -16.5m/s | 2.3°C | 66.7% | 0hPa | 0V | 00:00:00 | 00:00:00 | 00:00:00 | |
| LZ4TU-5 | 2026-09-01 06:51:45 | 44.18353 | 23.36205 | 121° | 44km/h | 3923m | -16.2m/s | 1.8°C | 64.5% | 0hPa | 0V | 00:00:00 | 00:00:00 | 00:00:00 | |
| LZ4TU-5 | 2026-09-01 06:51:40 | 44.18381 | 23.36135 | 121° | 46km/h | 4001m | -16.5m/s | 1.2°C | 0% | 0hPa | 0V | 00:00:00 | 00:00:00 | 00:00:00 | |
| LZ4TU-5 | 2026-09-01 06:50:16 | 44.18646 | 23.34634 | 107° | 57km/h | 5421m | -18.0m/s | -6.1°C | 20.4% | 0hPa | 0V | 00:00:00 | 00:00:00 | 00:00:00 | |
| LZ4TU-5 | 2026-09-01 06:50:11 | 44.18666 | 23.34538 | 109° | 57km/h | 5514m | -18.0m/s | -6.6°C | 21.1% | 0hPa | 0V | 00:00:00 | 00:00:00 | 00:00:00 | |
| LZ4TU-5 | 2026-09-01 06:48:47 | 44.19064 | 23.33080 | 107° | 58km/h | 7065m | -19.1m/s | -16.1°C | 3.8% | 0hPa | 0V | 00:00:00 | 00:00:00 | 00:00:00 | |
| LZ4TU-5 | 2026-09-01 06:48:42 | 44.19085 | 23.32983 | 107° | 57km/h | 7149m | -19.0m/s | -17.1°C | 0% | 0hPa | 0V | 00:00:00 | 00:00:00 | 00:00:00 | |
| LZ4TU-5 | 2026-09-01 06:47:09 | 44.19386 | 23.30707 | 100° | 86km/h | 9007m | -21.1m/s | -31.0°C | 17.1% | 0hPa | 0V | 00:00:00 | 00:00:00 | 00:00:00 | |
| LZ4TU-5 | 2026-09-01 06:47:05 | 44.19399 | 23.30587 | 98° | 84km/h | 9089m | -21.3m/s | -31.6°C | 17.0% | 0hPa | 0V | 00:00:00 | 00:00:00 | 00:00:00 | |
| LZ4TU-5 | 2026-09-01 06:45:19 | 44.19731 | 23.26492 | 98° | 142km/h | 11481m | -24.3m/s | -48.5°C | 18.8% | 0hPa | 0V | 00:00:00 | 00:00:00 | 00:00:00 | |
| LZ4TU-5 | 2026-09-01 06:45:14 | 44.19755 | 23.26243 | 99° | 141km/h | 11592m | -24.2m/s | -49.5°C | 18.9% | 0hPa | 0V | 00:00:00 | 00:00:00 | 00:00:00 | |
| OM5KV | 2026-09-01 06:44:53 | 44.71820 | 22.61673 | 278° | 579km/h | 29523m | 5.9m/s | -86.5°C | 14.4% | 0hPa | 0V | 00:00:00 | 00:00:00 | 00:00:00 | |
| LZ4TU-5 | 2026-09-01 06:42:02 | 44.19930 | 23.20254 | 89° | 40km/h | 17045m | -34.9m/s | -57.2°C | 0.0% | 0hPa | 0V | 00:00:00 | 00:00:00 | 00:00:00 | |
| LZ4TU-5 | 2026-09-01 06:41:58 | 44.19927 | 23.20196 | 90° | 46km/h | 17189m | -35.5m/s | -56.8°C | 0.0% | 0hPa | 0V | 00:00:00 | 00:00:00 | 00:00:00 | |
| LZ4TU-5 | 2026-09-01 06:40:25 | 44.19858 | 23.19631 | 329° | 15km/h | 20731m | -45.5m/s | -54.5°C | 0.0% | 0hPa | 0V | 00:00:00 | 00:00:00 | 00:00:00 | |
| LZ4TU-5 | 2026-09-01 06:38:39 | 44.19768 | 23.19713 | 243° | 68km/h | 27168m | -44.4m/s | -45.6°C | 0.0% | 0hPa | 0V | 00:00:00 | 00:00:00 | 00:00:00 | |
| LZ4TU-5 | 2026-09-01 06:38:35 | 44.19566 | 23.19607 | 254° | 80km/h | 28491m | -27.8m/s | -44.8°C | 0.0% | 0hPa | 0V | 00:00:00 | 00:00:00 | 00:00:00 | |
| LZ4TU-5 | 2026-09-01 06:38:30 | 44.19953 | 23.19825 | 0° | 0km/h | 30814m | 0.0m/s | -42.9°C | 0.0% | 0hPa | 0V | 00:00:00 | 00:00:00 | 00:00:00 | |
| LZ4TU-5 | 2026-09-01 06:38:23 | 44.20018 | 23.19873 | 0° | 0km/h | 30852m | 0.0m/s | -40.9°C | 0.0% | 0hPa | 0V | 00:00:00 | 00:00:00 | 00:00:00 | |
| LZ4TU-5 | 2026-09-01 06:38:18 | 44.20238 | 23.19630 | 0° | 0km/h | 30802m | 0.0m/s | -40.2°C | 0.0% | 0hPa | 0V | 00:00:00 | 00:00:00 | 00:00:00 | |
| LZ4TU-5 | 2026-09-01 06:38:13 | 44.19747 | 23.19729 | 100° | 15km/h | 30755m | 6.8m/s | -39.9°C | 0.0% | 0hPa | 0V | 00:00:00 | 00:00:00 | 00:00:00 | |
| LZ4TU-5 | 2026-09-01 06:38:09 | 44.19748 | 23.19716 | 98° | 20km/h | 30728m | 6.8m/s | -39.9°C | 0.0% | 0hPa | 0V | 00:00:00 | 00:00:00 | 00:00:00 | |
| LZ4TU-5 | 2026-09-01 06:38:04 | 44.19748 | 23.19670 | 95° | 16km/h | 30694m | 6.8m/s | -40.4°C | 0% | 0hPa | 0V | 00:00:00 | 00:00:00 | 00:00:00 | |
| LZ4TU-5 | 2026-09-01 06:36:33 | 44.19521 | 23.19371 | 108° | 4km/h | 30043m | 7.1m/s | -40.8°C | 0.0% | 0hPa | 0V | 00:00:00 | 00:00:00 | 00:00:00 | |
| LZ4TU-5 | 2026-09-01 06:36:28 | 44.19513 | 23.19376 | 262° | 13km/h | 30008m | 7.4m/s | -41.0°C | 0.0% | 0hPa | 0V | 00:00:00 | 00:00:00 | 00:00:00 | |
| LZ4TU-5 | 2026-09-01 06:34:56 | 44.19350 | 23.19629 | 281° | 13km/h | 29370m | 5.8m/s | -41.0°C | 0.0% | 0hPa | 0V | 00:00:00 | 00:00:00 | 00:00:00 | |
| LZ4TU-5 | 2026-09-01 06:34:51 | 44.19347 | 23.19645 | 252° | 13km/h | 29339m | 5.8m/s | -41.2°C | 0.0% | 0hPa | 0V | 00:00:00 | 00:00:00 | 00:00:00 | |
| LZ4TU-5 | 2026-09-01 06:33:19 | 44.19354 | 23.20115 | 274° | 16km/h | 28740m | 6.8m/s | -41.8°C | 0.0% | 0hPa | 0V | 00:00:00 | 00:00:00 | 00:00:00 | |
| LZ4TU-5 | 2026-09-01 06:33:14 | 44.19354 | 23.20134 | 200° | 11km/h | 28706m | 7.2m/s | -42.0°C | 0.0% | 0hPa | 0V | 00:00:00 | 00:00:00 | 00:00:00 | |
| LZ4TU-5 | 2026-09-01 06:31:34 | 44.19238 | 23.20527 | 282° | 18km/h | 28008m | 6.6m/s | -43.3°C | 0.0% | 0hPa | 0V | 00:00:00 | 00:00:00 | 00:00:00 | |
| LZ4TU-5 | 2026-09-01 06:31:30 | 44.19237 | 23.20552 | 218° | 15km/h | 27980m | 6.1m/s | -43.3°C | 0.0% | 0hPa | 0V | 00:00:00 | 00:00:00 | 00:00:00 | |
| OM5KV | 2026-09-01 06:30:20 | 44.19329 | 23.20657 | 160° | 7km/h | 27491m | 6.7m/s | -45.7°C | 0.0% | 0hPa | 0V | 00:00:00 | 00:00:00 | 00:00:00 | |
| LZ4TU-5 | 2026-09-01 06:30:00 | 44.19360 | 23.20705 | 227° | 26km/h | 27343m | 6.1m/s | -45.9°C | 0.0% | 0hPa | 0V | 00:00:00 | 00:00:00 | 00:00:00 | |
| LZ4TU-5 | 2026-09-01 06:29:56 | 44.19379 | 23.20712 | 223° | 5km/h | 27315m | 5.9m/s | -45.8°C | 0.0% | 0hPa | 0V | 00:00:00 | 00:00:00 | 00:00:00 | |
| OM5KV | 2026-09-01 06:29:13 | 44.19431 | 23.20693 | 114° | 22km/h | 27053m | 8.3m/s | -46.9°C | 0.0% | 0hPa | 0V | 00:00:00 | 00:00:00 | 00:00:00 | |
| OM5KV | 2026-09-01 06:29:05 | 44.19400 | 23.20661 | 88° | 13km/h | 26990m | 7.6m/s | -46.6°C | 0.0% | 0hPa | 0V | 00:00:00 | 00:00:00 | 00:00:00 | |
| OM5KV | 2026-09-01 06:28:58 | 44.19398 | 23.20624 | 25° | 24km/h | 26936m | 7.3m/s | -46.8°C | 0.0% | 0hPa | 0V | 00:00:00 | 00:00:00 | 00:00:00 | |
| OM5KV | 2026-09-01 06:28:50 | 44.19368 | 23.20612 | 129° | 20km/h | 26879m | 7.3m/s | -46.6°C | 0.0% | 0hPa | 0V | 00:00:00 | 00:00:00 | 00:00:00 | |
| OM5KV | 2026-09-01 06:28:46 | 44.19358 | 23.20601 | 115° | 13km/h | 26847m | 6.8m/s | -46.9°C | 0.0% | 0hPa | 0V | 00:00:00 | 00:00:00 | 00:00:00 | |
| OM5KV | 2026-09-01 06:28:33 | 44.19345 | 23.20572 | 300° | 18km/h | 26761m | 5.8m/s | -47.6°C | 0.0% | 0hPa | 0V | 00:00:00 | 00:00:00 | 00:00:00 | |
| OM5KV | 2026-09-01 06:28:29 | 44.19338 | 23.20584 | 85° | 5km/h | 26735m | 8.7m/s | -47.8°C | 0.0% | 0hPa | 0V | 00:00:00 | 00:00:00 | 00:00:00 | |
| LZ4TU-5 | 2026-09-01 06:28:22 | 44.19322 | 23.20579 | 314° | 40km/h | 26674m | 9.5m/s | -47.6°C | 0.0% | 0hPa | 0V | 00:00:00 | 00:00:00 | 00:00:00 | |
| OM5KV | 2026-09-01 06:28:20 | 44.19313 | 23.20591 | 319° | 20km/h | 26653m | 8.0m/s | -47.7°C | 0.0% | 0hPa | 0V | 00:00:00 | 00:00:00 | 00:00:00 | |
| LZ4TU-5 | 2026-09-01 06:28:17 | 44.19305 | 23.20595 | 107° | 11km/h | 26618m | 5.4m/s | -47.5°C | 0.0% | 0hPa | 0V | 00:00:00 | 00:00:00 | 00:00:00 | |
| OM5KV | 2026-09-01 06:28:08 | 44.19289 | 23.20632 | 289° | 24km/h | 26561m | 7.5m/s | -47.5°C | 0.0% | 0hPa | 0V | 00:00:00 | 00:00:00 | 00:00:00 | |
| OM5KV | 2026-09-01 06:28:03 | 44.19279 | 23.20631 | 28° | 13km/h | 26523m | 6.5m/s | -47.4°C | 0.0% | 0hPa | 0V | 00:00:00 | 00:00:00 | 00:00:00 | |
| OM5KV | 2026-09-01 06:28:00 | 44.19276 | 23.20635 | 261° | 31km/h | 26501m | 7.9m/s | -47.3°C | 0.0% | 0hPa | 0V | 00:00:00 | 00:00:00 | 00:00:00 | |
| OM5KV | 2026-09-01 06:27:41 | 44.19286 | 23.20724 | 272° | 29km/h | 26375m | 6.8m/s | -46.9°C | 0.0% | 0hPa | 0V | 00:00:00 | 00:00:00 | 00:00:00 | |
| OM5KV | 2026-09-01 06:27:35 | 44.19288 | 23.20796 | 255° | 31km/h | 26333m | 8.6m/s | -47.3°C | 0.0% | 0hPa | 0V | 00:00:00 | 00:00:00 | 00:00:00 | |
| OM5KV | 2026-09-01 06:27:28 | 44.19314 | 23.20837 | 237° | 35km/h | 26285m | 4.7m/s | -47.3°C | 0.0% | 0hPa | 0V | 00:00:00 | 00:00:00 | 00:00:00 | |
| OM5KV | 2026-09-01 06:27:27 | 44.19320 | 23.20847 | 237° | 37km/h | 26280m | 4.7m/s | -47.0°C | 0.0% | 0hPa | 0V | 00:00:00 | 00:00:00 | 00:00:00 | |
| OM5KV | 2026-09-01 06:27:16 | 44.19352 | 23.20910 | 258° | 20km/h | 26204m | 7.1m/s | -47.0°C | 0.0% | 0hPa | 0V | 00:00:00 | 00:00:00 | 00:00:00 | |
| OM5KV | 2026-09-01 06:27:07 | 44.19366 | 23.20939 | 203° | 11km/h | 26140m | 6.1m/s | -47.1°C | 0.0% | 0hPa | 0V | 00:00:00 | 00:00:00 | 00:00:00 | |
| OM5KV | 2026-09-01 06:27:01 | 44.19371 | 23.20970 | 297° | 20km/h | 26105m | 6.2m/s | -47.3°C | 0.0% | 0hPa | 0V | 00:00:00 | 00:00:00 | 00:00:00 | |
| OM5KV | 2026-09-01 06:26:51 | 44.19377 | 23.20991 | 278° | 22km/h | 26041m | 6.0m/s | -47.5°C | 0.0% | 0hPa | 0V | 00:00:00 | 00:00:00 | 00:00:00 | |
| LZ4TU-5 | 2026-09-01 06:26:46 | 44.19376 | 23.20997 | 170° | 15km/h | 26006m | 5.6m/s | -47.6°C | 0.0% | 0hPa | 0V | 00:00:00 | 00:00:00 | 00:00:00 | |
| OM5KV | 2026-09-01 06:26:45 | 44.19380 | 23.20995 | 185° | 15km/h | 26000m | 5.7m/s | -47.6°C | 0.0% | 0hPa | 0V | 00:00:00 | 00:00:00 | 00:00:00 | |
| LZ4TU-5 | 2026-09-01 06:26:41 | 44.19396 | 23.21004 | 201° | 22km/h | 25977m | 6.9m/s | -47.7°C | 0.0% | 0hPa | 0V | 00:00:00 | 00:00:00 | 00:00:00 | |
| LZ4TU-5 | 2026-09-01 06:25:11 | 44.19554 | 23.21292 | 198° | 15km/h | 25399m | 6.8m/s | -48.6°C | 0.0% | 0hPa | 0V | 00:00:00 | 00:00:00 | 00:00:00 | |
| LZ4TU-5 | 2026-09-01 06:25:06 | 44.19558 | 23.21294 | 328° | 9km/h | 25367m | 7.3m/s | -48.8°C | 0.0% | 0hPa | 0V | 00:00:00 | 00:00:00 | 00:00:00 | |
| LZ4TU-5 | 2026-09-01 06:23:27 | 44.19519 | 23.21650 | 334° | 2km/h | 24711m | 6.8m/s | -51.9°C | 0.0% | 0hPa | 0V | 00:00:00 | 00:00:00 | 00:00:00 | |
| LZ4TU-5 | 2026-09-01 06:23:22 | 44.19501 | 23.21666 | 328° | 7km/h | 24679m | 7.3m/s | -51.9°C | 0% | 0hPa | 0V | 00:00:00 | 00:00:00 | 00:00:00 | |
| LZ4TU-5 | 2026-09-01 06:21:55 | 44.19472 | 23.21696 | 287° | 5km/h | 24067m | 5.0m/s | -52.1°C | 0.0% | 0hPa | 0V | 00:00:00 | 00:00:00 | 00:00:00 | |
| LZ4TU-5 | 2026-09-01 06:21:50 | 44.19475 | 23.21694 | 69° | 5km/h | 24036m | 6.4m/s | -52.0°C | 0.0% | 0hPa | 0V | 00:00:00 | 00:00:00 | 00:00:00 | |
| LZ4TU-5 | 2026-09-01 06:20:21 | 44.19440 | 23.21718 | 311° | 7km/h | 23494m | 7.4m/s | -52.6°C | 0.0% | 0hPa | 0V | 00:00:00 | 00:00:00 | 00:00:00 | |
| LZ4TU-5 | 2026-09-01 06:20:16 | 44.19429 | 23.21724 | 299° | 16km/h | 23457m | 7.6m/s | -52.5°C | 0.0% | 0hPa | 0V | 00:00:00 | 00:00:00 | 00:00:00 | |
| LZ4TU-5 | 2026-09-01 06:18:49 | 44.19484 | 23.21925 | 237° | 4km/h | 22844m | 4.9m/s | -52.7°C | 0.0% | 0hPa | 0V | 00:00:00 | 00:00:00 | 00:00:00 | |
| LZ4TU-5 | 2026-09-01 06:18:44 | 44.19492 | 23.21932 | 163° | 9km/h | 22815m | 4.9m/s | -53.0°C | 0.0% | 0hPa | 0V | 00:00:00 | 00:00:00 | 00:00:00 | |
| LZ4TU-5 | 2026-09-01 06:17:16 | 44.19358 | 23.21763 | 264° | 9km/h | 22277m | 5.9m/s | -53.5°C | 0.0% | 0hPa | 0V | 00:00:00 | 00:00:00 | 00:00:00 | |
| LZ4TU-5 | 2026-09-01 06:17:11 | 44.19338 | 23.21786 | 13° | 20km/h | 22250m | 5.3m/s | -53.6°C | 0.0% | 0hPa | 0V | 00:00:00 | 00:00:00 | 00:00:00 | |
| LZ4TU-5 | 2026-09-01 06:15:42 | 44.19188 | 23.21682 | 360° | 13km/h | 21685m | 7.0m/s | -54.4°C | 0.0% | 0hPa | 0V | 00:00:00 | 00:00:00 | 00:00:00 | |
| LZ4TU-5 | 2026-09-01 06:15:37 | 44.19171 | 23.21665 | 29° | 31km/h | 21657m | 5.9m/s | -54.8°C | 0.0% | 0hPa | 0V | 00:00:00 | 00:00:00 | 00:00:00 | |
| LZ4TU-5 | 2026-09-01 06:14:09 | 44.18748 | 23.21699 | 272° | 9km/h | 21143m | 6.2m/s | -55.4°C | 0.0% | 0hPa | 0V | 00:00:00 | 00:00:00 | 00:00:00 | |
| LZ4TU-5 | 2026-09-01 06:14:04 | 44.18738 | 23.21715 | 342° | 18km/h | 21114m | 7.1m/s | -55.4°C | 0.0% | 0hPa | 0V | 00:00:00 | 00:00:00 | 00:00:00 | |
| LZ4TU-5 | 2026-09-01 06:12:33 | 44.18593 | 23.21872 | 295° | 13km/h | 20528m | 4.8m/s | -54.9°C | 0.0% | 0hPa | 0V | 00:00:00 | 00:00:00 | 00:00:00 | |
| LZ4TU-5 | 2026-09-01 06:12:28 | 44.18589 | 23.21869 | 245° | 9km/h | 20511m | 6.2m/s | -54.9°C | 0% | 0hPa | 0V | 00:00:00 | 00:00:00 | 00:00:00 | |
| LZ4TU-5 | 2026-09-01 06:10:53 | 44.18473 | 23.21831 | 22° | 11km/h | 19925m | 7.8m/s | -54.3°C | 0.0% | 0hPa | 0V | 00:00:00 | 00:00:00 | 00:00:00 | |
| LZ4TU-5 | 2026-09-01 06:10:48 | 44.18456 | 23.21821 | 29° | 27km/h | 19898m | 4.8m/s | -54.3°C | 0.0% | 0hPa | 0V | 00:00:00 | 00:00:00 | 00:00:00 | |
| LZ4TU-5 | 2026-09-01 06:09:19 | 44.18632 | 23.21618 | 165° | 24km/h | 19337m | 4.6m/s | -54.6°C | 0.0% | 0hPa | 0V | 00:00:00 | 00:00:00 | 00:00:00 | |
| LZ4TU-5 | 2026-09-01 06:09:14 | 44.18657 | 23.21577 | 111° | 37km/h | 19298m | 9.0m/s | -54.9°C | 0.0% | 0hPa | 0V | 00:00:00 | 00:00:00 | 00:00:00 | |
| LZ4TU-5 | 2026-09-01 06:07:39 | 44.18617 | 23.20551 | 62° | 44km/h | 18738m | 6.0m/s | -56.7°C | 0.0% | 0hPa | 0V | 00:00:00 | 00:00:00 | 00:00:00 | |
| LZ4TU-5 | 2026-09-01 06:07:34 | 44.18600 | 23.20503 | 41° | 29km/h | 18709m | 8.5m/s | -56.8°C | 0.0% | 0hPa | 0V | 00:00:00 | 00:00:00 | 00:00:00 | |
| LZ4TU-5 | 2026-09-01 06:06:05 | 44.18149 | 23.20003 | 23° | 9km/h | 18169m | 6.8m/s | -55.9°C | 0.0% | 0hPa | 0V | 00:00:00 | 00:00:00 | 00:00:00 | |
| LZ4TU-5 | 2026-09-01 06:06:00 | 44.18142 | 23.19979 | 75° | 24km/h | 18139m | 8.5m/s | -56.2°C | 0.0% | 0hPa | 0V | 00:00:00 | 00:00:00 | 00:00:00 | |
| LZ4TU-5 | 2026-09-01 06:04:19 | 44.18186 | 23.19234 | 91° | 27km/h | 17540m | 5.6m/s | -56.4°C | 0.0% | 0hPa | 0V | 00:00:00 | 00:00:00 | 00:00:00 | |
| LZ4TU-5 | 2026-09-01 06:04:14 | 44.18176 | 23.19182 | 101° | 33km/h | 17510m | 5.5m/s | -56.7°C | 0.0% | 0hPa | 0V | 00:00:00 | 00:00:00 | 00:00:00 | |
| LZ4TU-5 | 2026-09-01 06:02:47 | 44.18149 | 23.17877 | 86° | 47km/h | 17013m | 5.2m/s | -57.9°C | 0.0% | 0hPa | 0V | 00:00:00 | 00:00:00 | 00:00:00 | |
| LZ4TU-5 | 2026-09-01 06:02:42 | 44.18137 | 23.17791 | 79° | 49km/h | 16985m | 5.8m/s | -57.9°C | 0.0% | 0hPa | 0V | 00:00:00 | 00:00:00 | 00:00:00 | |
| LZ4TU-5 | 2026-09-01 06:01:14 | 44.17636 | 23.16188 | 67° | 55km/h | 16502m | 4.2m/s | -58.2°C | 1.1% | 0hPa | 0V | 00:00:00 | 00:00:00 | 00:00:00 | |
| LZ4TU-5 | 2026-09-01 06:01:10 | 44.17622 | 23.16134 | 77° | 27km/h | 16480m | 4.8m/s | -58.1°C | 1.3% | 0hPa | 0V | 00:00:00 | 00:00:00 | 00:00:00 | |
| LZ4TU-5 | 2026-09-01 06:01:05 | 44.17608 | 23.16074 | 80° | 42km/h | 16452m | 4.6m/s | -58.2°C | 1.1% | 0hPa | 0V | 00:00:00 | 00:00:00 | 00:00:00 | |
| LZ4TU-5 | 2026-09-01 06:01:00 | 44.17596 | 23.16007 | 72° | 24km/h | 16423m | 5.8m/s | -58.4°C | 1.1% | 0hPa | 0V | 00:00:00 | 00:00:00 | 00:00:00 | |
| LZ4TU-5 | 2026-09-01 05:59:33 | 44.17352 | 23.14534 | 92° | 49km/h | 15950m | 6.0m/s | -61.7°C | 2.2% | 0hPa | 0V | 00:00:00 | 00:00:00 | 00:00:00 | |
| LZ4TU-5 | 2026-09-01 05:59:28 | 44.17348 | 23.14427 | 78° | 55km/h | 15920m | 3.7m/s | -61.4°C | 2.3% | 0hPa | 0V | 00:00:00 | 00:00:00 | 00:00:00 | |
| LZ4TU-5 | 2026-09-01 05:58:01 | 44.17716 | 23.12767 | 92° | 58km/h | 15395m | 5.4m/s | -60.8°C | 4.9% | 0hPa | 0V | 00:00:00 | 00:00:00 | 00:00:00 | |
| LZ4TU-5 | 2026-09-01 05:57:56 | 44.17731 | 23.12660 | 107° | 68km/h | 15367m | 5.2m/s | -61.1°C | 5.1% | 0hPa | 0V | 00:00:00 | 00:00:00 | 00:00:00 | |
| LZ4TU-5 | 2026-09-01 05:56:28 | 44.17521 | 23.10688 | 75° | 64km/h | 14861m | 5.2m/s | -60.7°C | 8.1% | 0hPa | 0V | 00:00:00 | 00:00:00 | 00:00:00 | |
| LZ4TU-5 | 2026-09-01 05:56:24 | 44.17513 | 23.10607 | 93° | 58km/h | 14836m | 6.3m/s | -60.5°C | 8.0% | 0hPa | 0V | 00:00:00 | 00:00:00 | 00:00:00 | |
| LZ4TU-5 | 2026-09-01 05:54:58 | 44.17425 | 23.08421 | 81° | 82km/h | 14330m | 4.6m/s | -61.3°C | 11.7% | 0hPa | 0V | 00:00:00 | 00:00:00 | 00:00:00 | |
| LZ4TU-5 | 2026-09-01 05:54:53 | 44.17405 | 23.08276 | 85° | 89km/h | 14303m | 6.1m/s | -61.1°C | 11.6% | 0hPa | 0V | 00:00:00 | 00:00:00 | 00:00:00 | |
| LZ4TU-5 | 2026-09-01 05:53:23 | 44.17168 | 23.05701 | 87° | 88km/h | 13769m | 4.8m/s | -60.5°C | 13.3% | 0hPa | 0V | 00:00:00 | 00:00:00 | 00:00:00 | |
| LZ4TU-5 | 2026-09-01 05:51:43 | 44.17400 | 23.02410 | 110° | 93km/h | 13187m | 4.3m/s | -58.3°C | 12.7% | 0hPa | 0V | 00:00:00 | 00:00:00 | 00:00:00 | |
| LZ4TU-5 | 2026-09-01 05:51:38 | 44.17432 | 23.02240 | 101° | 108km/h | 13160m | 4.7m/s | -58.2°C | 12.8% | 0hPa | 0V | 00:00:00 | 00:00:00 | 00:00:00 | |
| LZ4TU-5 | 2026-09-01 05:50:10 | 44.17933 | 22.98984 | 95° | 119km/h | 12662m | 7.3m/s | -56.7°C | 18.3% | 0hPa | 0V | 00:00:00 | 00:00:00 | 00:00:00 | |
| LZ4TU-5 | 2026-09-01 05:50:05 | 44.17954 | 22.98776 | 104° | 128km/h | 12632m | 7.4m/s | -56.6°C | 18.4% | 0hPa | 0V | 00:00:00 | 00:00:00 | 00:00:00 | |
| LZ4TU-5 | 2026-09-01 05:48:36 | 44.18540 | 22.94801 | 104° | 146km/h | 12092m | 5.2m/s | -53.8°C | 18.6% | 0hPa | 0V | 00:00:00 | 00:00:00 | 00:00:00 | |
| LZ4TU-5 | 2026-09-01 05:48:31 | 44.18567 | 22.94547 | 98° | 144km/h | 12062m | 6.6m/s | -53.5°C | 18.4% | 0hPa | 0V | 00:00:00 | 00:00:00 | 00:00:00 | |
| LZ4TU-5 | 2026-09-01 05:47:05 | 44.19082 | 22.90278 | 97° | 141km/h | 11521m | 4.8m/s | -49.3°C | 17.3% | 0hPa | 0V | 00:00:00 | 00:00:00 | 00:00:00 | |
| LZ4TU-5 | 2026-09-01 05:45:33 | 44.19447 | 22.85860 | 101° | 137km/h | 10978m | 4.6m/s | -45.4°C | 15.6% | 0hPa | 0V | 00:00:00 | 00:00:00 | 00:00:00 | |
| LZ4TU-5 | 2026-09-01 05:45:28 | 44.19464 | 22.85651 | 90° | 137km/h | 10949m | 5.1m/s | -45.2°C | 15.4% | 0hPa | 0V | 00:00:00 | 00:00:00 | 00:00:00 | |
| LZ4TU-5 | 2026-09-01 05:43:53 | 44.19713 | 22.81517 | 100° | 102km/h | 10394m | 6.4m/s | -41.6°C | 11.9% | 0hPa | 0V | 00:00:00 | 00:00:00 | 00:00:00 | |
| LZ4TU-5 | 2026-09-01 05:43:48 | 44.19717 | 22.81324 | 89° | 122km/h | 10359m | 7.3m/s | -41.3°C | 11.9% | 0hPa | 0V | 00:00:00 | 00:00:00 | 00:00:00 | |
| LZ4TU-5 | 2026-09-01 05:42:12 | 44.19858 | 22.77642 | 90° | 97km/h | 9830m | 4.0m/s | -37.5°C | 13.3% | 0hPa | 0V | 00:00:00 | 00:00:00 | 00:00:00 | |
| LZ4TU-5 | 2026-09-01 05:42:07 | 44.19856 | 22.77431 | 102° | 110km/h | 9808m | 6.7m/s | -37.4°C | 13.8% | 0hPa | 0V | 00:00:00 | 00:00:00 | 00:00:00 | |
| LZ4TU-5 | 2026-09-01 05:40:41 | 44.20171 | 22.74688 | 94° | 88km/h | 9294m | 6.1m/s | -34.4°C | 18.3% | 0hPa | 0V | 00:00:00 | 00:00:00 | 00:00:00 | |
| LZ4TU-5 | 2026-09-01 05:40:36 | 44.20185 | 22.74544 | 115° | 84km/h | 9269m | 4.9m/s | -34.2°C | 0% | 0hPa | 0V | 00:00:00 | 00:00:00 | 00:00:00 | |
| LZ4TU-5 | 2026-09-01 05:39:09 | 44.20470 | 22.72004 | 101° | 97km/h | 8769m | 4.8m/s | -30.2°C | 17.1% | 0hPa | 0V | 00:00:00 | 00:00:00 | 00:00:00 | |
| LZ4TU-5 | 2026-09-01 05:39:05 | 44.20502 | 22.71858 | 102° | 111km/h | 8747m | 5.4m/s | -30.0°C | 16.6% | 0hPa | 0V | 00:00:00 | 00:00:00 | 00:00:00 | |
| LZ4TU-5 | 2026-09-01 05:37:30 | 44.20664 | 22.69234 | 107° | 89km/h | 8150m | 4.8m/s | -25.7°C | 16.5% | 0hPa | 0V | 00:00:00 | 00:00:00 | 00:00:00 | |
| LZ4TU-5 | 2026-09-01 05:37:25 | 44.20655 | 22.69073 | 80° | 86km/h | 8126m | 3.3m/s | -25.5°C | 16.6% | 0hPa | 0V | 00:00:00 | 00:00:00 | 00:00:00 | |
| LZ4TU-5 | 2026-09-01 05:35:57 | 44.20787 | 22.66712 | 92° | 86km/h | 7615m | 5.6m/s | -21.8°C | 7.8% | 0hPa | 0V | 00:00:00 | 00:00:00 | 00:00:00 | |
| LZ4TU-5 | 2026-09-01 05:35:53 | 44.20797 | 22.66610 | 96° | 69km/h | 7594m | 4.5m/s | -21.6°C | 7.8% | 0hPa | 0V | 00:00:00 | 00:00:00 | 00:00:00 | |
| LZ4TU-5 | 2026-09-01 05:34:28 | 44.20966 | 22.64816 | 114° | 40km/h | 7078m | 5.6m/s | -18.2°C | 6.2% | 0hPa | 0V | 00:00:00 | 00:00:00 | 00:00:00 | |
| LZ4TU-5 | 2026-09-01 05:34:24 | 44.20993 | 22.64736 | 124° | 75km/h | 7050m | 7.6m/s | -18.0°C | 0% | 0hPa | 0V | 00:00:00 | 00:00:00 | 00:00:00 | |
| LZ4TU-5 | 2026-09-01 05:33:12 | 44.21333 | 22.63502 | 125° | 51km/h | 6608m | 5.8m/s | -15.0°C | 18.6% | 0hPa | 0V | 00:00:00 | 00:00:00 | 00:00:00 | |
| LZ4TU-5 | 2026-09-01 05:33:08 | 44.21364 | 22.63441 | 138° | 51km/h | 6585m | 6.6m/s | -14.8°C | 13.3% | 0hPa | 0V | 00:00:00 | 00:00:00 | 00:00:00 | |
| LZ4TU-5 | 2026-09-01 05:31:56 | 44.21873 | 22.62222 | 116° | 66km/h | 6181m | 7.3m/s | -12.2°C | 0% | 0hPa | 0V | 00:00:00 | 00:00:00 | 00:00:00 | |
| LZ4TU-5 | 2026-09-01 05:31:51 | 44.21899 | 22.62103 | 117° | 84km/h | 6152m | 4.8m/s | -11.9°C | 12.7% | 0hPa | 0V | 00:00:00 | 00:00:00 | 00:00:00 | |
| LZ4TU-5 | 2026-09-01 05:30:37 | 44.22353 | 22.60712 | 92° | 71km/h | 5732m | 8.0m/s | -9.1°C | 22.9% | 0hPa | 0V | 00:00:00 | 00:00:00 | 00:00:00 | |
| LZ4TU-5 | 2026-09-01 05:30:33 | 44.22373 | 22.60599 | 116° | 69km/h | 5712m | 6.8m/s | -8.8°C | 23.1% | 0hPa | 0V | 00:00:00 | 00:00:00 | 00:00:00 | |
| LZ4TU-5 | 2026-09-01 05:29:16 | 44.22730 | 22.59136 | 94° | 80km/h | 5268m | 6.4m/s | -5.2°C | 12.4% | 0hPa | 0V | 00:00:00 | 00:00:00 | 00:00:00 | |
| LZ4TU-5 | 2026-09-01 05:29:12 | 44.22732 | 22.59046 | 112° | 49km/h | 5242m | 9.7m/s | -5.1°C | 11.7% | 0hPa | 0V | 00:00:00 | 00:00:00 | 00:00:00 | |
| LZ4TU-5 | 2026-09-01 05:29:07 | 44.22757 | 22.58979 | 78° | 40km/h | 5210m | 5.9m/s | -5.1°C | 12.8% | 0hPa | 0V | 00:00:00 | 00:00:00 | 00:00:00 | |
| LZ4TU-5 | 2026-09-01 05:27:43 | 44.22726 | 22.57597 | 82° | 62km/h | 4690m | 7.4m/s | -2.5°C | 27.3% | 0hPa | 0V | 00:00:00 | 00:00:00 | 00:00:00 | |
| LZ4TU-5 | 2026-09-01 05:26:15 | 44.22853 | 22.56336 | 84° | 47km/h | 4150m | 5.6m/s | 0.4°C | 49.3% | 0hPa | 0V | 00:00:00 | 00:00:00 | 00:00:00 | |
| LZ4TU-5 | 2026-09-01 05:26:10 | 44.22857 | 22.56273 | 103° | 27km/h | 4123m | 5.5m/s | 0.5°C | 52.1% | 0hPa | 0V | 00:00:00 | 00:00:00 | 00:00:00 | |
| LZ4TU-5 | 2026-09-01 05:26:05 | 44.22862 | 22.56183 | 74° | 38km/h | 4094m | 6.2m/s | 0.5°C | 57.5% | 0hPa | 0V | 00:00:00 | 00:00:00 | 00:00:00 | |
| LZ4TU-5 | 2026-09-01 05:24:58 | 44.22982 | 22.55367 | 65° | 26km/h | 3706m | 5.8m/s | 1.9°C | 82.8% | 0hPa | 0V | 00:00:00 | 00:00:00 | 00:00:00 | |
| LZ4TU-5 | 2026-09-01 05:24:54 | 44.22981 | 22.55346 | 155° | 24km/h | 3689m | 4.8m/s | 2.1°C | 81.6% | 0hPa | 0V | 00:00:00 | 00:00:00 | 00:00:00 | |
| LZ4TU-5 | 2026-09-01 05:23:53 | 44.23203 | 22.54746 | 95° | 44km/h | 3321m | 7.4m/s | 4.8°C | 80.6% | 0hPa | 0V | 00:00:00 | 00:00:00 | 00:00:00 | |
| LZ4TU-5 | 2026-09-01 05:23:48 | 44.23225 | 22.54711 | 25° | 4km/h | 3290m | 5.4m/s | 5.1°C | 0% | 0hPa | 0V | 00:00:00 | 00:00:00 | 00:00:00 | |
| LZ4TU-5 | 2026-09-01 05:22:47 | 44.23390 | 22.54241 | 185° | 20km/h | 2940m | 4.0m/s | 7.4°C | 78.6% | 0hPa | 0V | 00:00:00 | 00:00:00 | 00:00:00 | |
| LZ4TU-5 | 2026-09-01 05:22:42 | 44.23390 | 22.54214 | 54° | 22km/h | 2915m | 5.7m/s | 7.6°C | 77.7% | 0hPa | 0V | 00:00:00 | 00:00:00 | 00:00:00 | |
| LZ4TU-5 | 2026-09-01 05:21:41 | 44.23595 | 22.53792 | 130° | 20km/h | 2543m | 6.4m/s | 10.4°C | 69.9% | 0hPa | 0V | 00:00:00 | 00:00:00 | 00:00:00 | |
| LZ4TU-5 | 2026-09-01 05:21:36 | 44.23615 | 22.53751 | 122° | 22km/h | 2512m | 5.4m/s | 10.7°C | 0% | 0hPa | 0V | 00:00:00 | 00:00:00 | 00:00:00 | |
| LZ4TU-5 | 2026-09-01 05:20:35 | 44.23739 | 22.53337 | 118° | 15km/h | 2135m | 5.5m/s | 14.0°C | 55.7% | 0hPa | 0V | 00:00:00 | 00:00:00 | 00:00:00 | |
| LZ4TU-5 | 2026-09-01 05:20:30 | 44.23730 | 22.53300 | 60° | 27km/h | 2106m | 5.4m/s | 14.2°C | 55.4% | 0hPa | 0V | 00:00:00 | 00:00:00 | 00:00:00 | |
| LZ4TU-5 | 2026-09-01 05:19:29 | 44.23719 | 22.53142 | 47° | 13km/h | 1726m | 5.8m/s | 15.6°C | 61.6% | 0hPa | 0V | 00:00:00 | 00:00:00 | 00:00:00 | |
| LZ4TU-5 | 2026-09-01 05:19:24 | 44.23711 | 22.53149 | 293° | 20km/h | 1694m | 5.7m/s | 15.8°C | 0% | 0hPa | 0V | 00:00:00 | 00:00:00 | 00:00:00 | |
| LZ4TU-5 | 2026-09-01 05:18:23 | 44.23592 | 22.53258 | 313° | 13km/h | 1305m | 6.8m/s | 18.0°C | 52.2% | 0hPa | 0V | 00:00:00 | 00:00:00 | 00:00:00 | |
| LZ4TU-5 | 2026-09-01 05:18:18 | 44.23582 | 22.53284 | 259° | 13km/h | 1273m | 5.9m/s | 18.2°C | 52.0% | 0hPa | 0V | 00:00:00 | 00:00:00 | 00:00:00 | |
| LZ4TU-5 | 2026-09-01 05:17:17 | 44.23584 | 22.53417 | 215° | 20km/h | 885m | 7.2m/s | 21.0°C | 47.2% | 0hPa | 0V | 00:00:00 | 00:00:00 | 00:00:00 | |
| LZ4TU-5 | 2026-09-01 05:17:13 | 44.23592 | 22.53425 | 232° | 9km/h | 858m | 6.3m/s | 20.8°C | 0% | 0hPa | 0V | 00:00:00 | 00:00:00 | 00:00:00 |